createdAt,value
2022-11-12T00:04:09.578Z,7.67
2022-11-12T00:09:30.049Z,7.68
2022-11-12T00:14:55.358Z,7.65
2022-11-12T00:20:15.793Z,7.62
2022-11-12T00:25:36.634Z,7.59
2022-11-12T00:30:57.350Z,7.54
2022-11-12T00:36:17.686Z,7.49
2022-11-12T00:41:37.943Z,7.44
2022-11-12T00:46:58.459Z,7.34
2022-11-12T00:52:19.070Z,7.32
2022-11-12T00:57:39.640Z,7.27
2022-11-12T01:02:59.856Z,7.24
2022-11-12T01:08:20.258Z,7.20
2022-11-12T01:13:44.359Z,7.17
2022-11-12T01:19:06.920Z,7.14
2022-11-12T01:24:27.533Z,7.04
2022-11-12T01:29:48.030Z,7.02
2022-11-12T01:35:08.468Z,7.00
2022-11-12T01:40:28.652Z,6.94
2022-11-12T01:45:50.045Z,6.91
2022-11-12T01:51:11.825Z,6.83
2022-11-12T01:56:32.422Z,6.80
2022-11-12T02:01:52.910Z,6.80
2022-11-12T02:07:13.130Z,6.76
2022-11-12T02:12:52.601Z,6.74
2022-11-12T02:18:12.998Z,6.72
2022-11-12T02:23:33.205Z,6.66
2022-11-12T02:28:53.318Z,6.61
2022-11-12T02:34:13.873Z,6.56
2022-11-12T02:39:34.303Z,6.57
2022-11-12T02:44:55.130Z,6.53
2022-11-12T02:50:15.533Z,6.54
2022-11-12T02:55:35.993Z,6.51
2022-11-12T03:00:57.046Z,6.51
2022-11-12T03:06:19.088Z,6.48
2022-11-12T03:11:39.364Z,6.45
2022-11-12T03:17:00.016Z,6.42
2022-11-12T03:22:20.440Z,6.40
2022-11-12T03:27:40.913Z,6.38
2022-11-12T03:33:01.686Z,6.37
2022-11-12T03:38:21.857Z,6.33
2022-11-12T03:43:42.488Z,6.29
2022-11-12T03:49:02.888Z,6.25
2022-11-12T03:54:23.580Z,6.22
2022-11-12T03:59:43.870Z,6.15
2022-11-12T04:05:24.558Z,6.08
2022-11-12T04:10:44.852Z,6.05
2022-11-12T04:16:26.295Z,5.99
2022-11-12T04:21:51.481Z,5.97
2022-11-12T04:27:16.751Z,5.95
2022-11-12T04:32:38.790Z,5.94
2022-11-12T04:37:59.158Z,5.91
2022-11-12T04:43:38.222Z,5.86
2022-11-12T04:48:58.518Z,5.81
2022-11-12T04:54:19.178Z,5.78
2022-11-12T04:59:39.699Z,5.75
2022-11-12T05:05:00.230Z,5.72
2022-11-12T05:10:20.686Z,5.67
2022-11-12T05:15:43.356Z,5.64
2022-11-12T05:21:23.712Z,5.61
2022-11-12T05:26:44.123Z,5.60
2022-11-12T05:32:05.030Z,5.57
2022-11-12T05:37:25.212Z,5.51
2022-11-12T05:42:45.827Z,5.49
2022-11-12T05:48:06.343Z,5.46
2022-11-12T05:53:26.568Z,5.43
2022-11-12T05:58:47.153Z,5.39
2022-11-12T06:04:07.775Z,5.39
2022-11-12T06:09:27.950Z,5.39
2022-11-12T06:14:48.336Z,5.38
2022-11-12T06:20:08.940Z,5.41
2022-11-12T06:25:29.073Z,5.48
2022-11-12T06:30:49.540Z,5.56
2022-11-12T06:36:10.802Z,5.64
2022-11-12T06:41:31.189Z,5.68
2022-11-12T06:46:51.641Z,5.73
2022-11-12T06:52:16.359Z,5.80
2022-11-12T06:57:37.455Z,5.91
2022-11-12T07:02:57.938Z,6.02
2022-11-12T07:08:18.602Z,6.20
2022-11-12T07:13:39.386Z,6.57
2022-11-12T07:18:59.859Z,6.76
2022-11-12T07:24:19.973Z,6.90
2022-11-12T07:29:47.922Z,7.03
2022-11-12T07:35:08.662Z,7.13
2022-11-12T07:40:29.036Z,7.24
2022-11-12T07:45:49.457Z,7.59
2022-11-12T07:51:15.800Z,7.93
2022-11-12T07:56:35.907Z,8.09
2022-11-12T08:01:56.516Z,8.26
2022-11-12T08:07:17.262Z,8.45
2022-11-12T08:12:37.799Z,8.57
2022-11-12T08:17:58.677Z,8.69
2022-11-12T08:23:18.898Z,9.48
2022-11-12T08:28:39.973Z,10.07
2022-11-12T08:34:12.184Z,10.19
2022-11-12T08:39:33.093Z,10.24
2022-11-12T08:44:53.163Z,10.36
2022-11-12T08:50:13.713Z,10.48
2022-11-12T08:55:34.709Z,10.66
2022-11-12T09:00:56.023Z,10.86
2022-11-12T09:06:16.761Z,11.05
2022-11-12T09:11:37.084Z,11.27
2022-11-12T09:16:57.440Z,11.48
2022-11-12T09:22:17.590Z,11.70
2022-11-12T09:27:38.012Z,11.86
2022-11-12T09:32:59.108Z,12.05
2022-11-12T09:38:19.940Z,12.26
2022-11-12T09:43:45.753Z,12.48
2022-11-12T09:49:15.072Z,12.69
2022-11-12T09:54:35.509Z,12.93
2022-11-12T09:59:57.110Z,13.14
2022-11-12T10:05:17.371Z,13.36
2022-11-12T10:10:44.866Z,13.49
2022-11-12T10:16:32.206Z,13.61
2022-11-12T10:21:58.539Z,13.82
2022-11-12T10:27:20.584Z,13.99
2022-11-12T10:32:43.351Z,14.06
2022-11-12T10:38:11.800Z,14.23
2022-11-12T10:43:32.080Z,14.34
2022-11-12T10:49:07.161Z,14.45
2022-11-12T10:54:27.608Z,14.61
2022-11-12T10:59:47.835Z,14.78
2022-11-12T11:05:28.231Z,14.85
2022-11-12T11:10:48.615Z,14.93
2022-11-12T11:16:12.597Z,14.99
2022-11-12T11:21:41.714Z,15.07
2022-11-12T11:27:28.689Z,15.11
2022-11-12T11:33:03.418Z,15.21
2022-11-12T11:38:30.645Z,15.29
2022-11-12T11:43:57.957Z,15.36
2022-11-12T11:49:30.783Z,15.01
2022-11-12T11:54:53.819Z,14.74
2022-11-12T12:00:19.547Z,14.86
2022-11-12T12:05:42.696Z,15.25
2022-11-12T12:11:09.282Z,15.46
2022-11-12T12:16:52.213Z,15.45
2022-11-12T12:22:17.528Z,15.07
2022-11-12T12:27:42.967Z,14.91
2022-11-12T12:33:15.599Z,14.69
2022-11-12T12:38:38.710Z,14.86
2022-11-12T12:44:02.999Z,15.10
2022-11-12T12:49:29.658Z,14.75
2022-11-12T12:54:52.743Z,14.48
2022-11-12T13:00:33.239Z,14.37
2022-11-12T13:06:06.804Z,14.45
2022-11-12T13:12:01.650Z,14.75
2022-11-12T13:17:40.834Z,14.43
2022-11-12T13:23:01.757Z,14.33
2022-11-12T13:28:22.167Z,14.66
2022-11-12T13:33:42.767Z,14.83
2022-11-12T13:39:12.552Z,14.60
2022-11-12T13:44:35.267Z,14.28
2022-11-12T13:49:58.689Z,14.45
2022-11-12T13:55:20.495Z,14.50
2022-11-12T14:00:40.788Z,14.53
2022-11-12T14:06:06.354Z,14.53
2022-11-12T14:11:54.604Z,14.50
2022-11-12T14:17:22.032Z,14.45
2022-11-12T14:22:44.318Z,14.34
2022-11-12T14:28:05.464Z,14.17
2022-11-12T14:33:26.998Z,14.00
2022-11-12T14:38:49.726Z,13.83
2022-11-12T14:44:13.714Z,13.63
2022-11-12T14:49:44.470Z,13.41
2022-11-12T14:55:11.885Z,13.20
2022-11-12T15:00:32.282Z,12.96
2022-11-12T15:05:54.348Z,12.76
2022-11-12T15:11:21.438Z,12.55
2022-11-12T15:16:43.272Z,12.34
2022-11-12T15:22:04.609Z,12.13
2022-11-12T15:27:35.452Z,11.92
2022-11-12T15:33:09.714Z,11.71
2022-11-12T15:38:35.908Z,11.51
2022-11-12T15:43:56.848Z,11.34
2022-11-12T15:49:17.162Z,11.16
2022-11-12T15:54:41.015Z,10.97
2022-11-12T16:00:07.916Z,10.78
2022-11-12T16:05:28.922Z,10.61
2022-11-12T16:10:49.686Z,10.47
2022-11-12T16:16:10.876Z,10.31
2022-11-12T16:21:31.284Z,10.13
2022-11-12T16:26:52.133Z,9.93
2022-11-12T16:32:14.004Z,9.75
2022-11-12T16:37:34.624Z,9.59
2022-11-12T16:42:55.167Z,9.45
2022-11-12T16:48:18.450Z,9.32
2022-11-12T16:53:38.955Z,9.19
2022-11-12T16:58:59.875Z,9.08
2022-11-12T17:04:20.185Z,8.97
2022-11-12T17:09:40.502Z,8.87
2022-11-12T17:15:00.662Z,8.78
2022-11-12T17:20:21.379Z,8.69
2022-11-12T17:25:41.569Z,8.59
2022-11-12T17:31:02.841Z,8.49
2022-11-12T17:36:24.580Z,8.39
2022-11-12T17:41:44.798Z,8.29
2022-11-12T17:47:05.251Z,8.21
2022-11-12T17:52:25.505Z,8.12
2022-11-12T17:57:48.518Z,8.00
2022-11-12T18:03:09.007Z,7.89
2022-11-12T18:08:29.774Z,7.81
2022-11-12T18:13:50.374Z,7.72
2022-11-12T18:19:11.320Z,7.62
2022-11-12T18:24:31.564Z,7.54
2022-11-12T18:29:52.290Z,7.53
2022-11-12T18:35:12.652Z,7.52
2022-11-12T18:40:33.338Z,7.55
2022-11-12T18:45:54.433Z,7.45
2022-11-12T18:51:16.021Z,7.49
2022-11-12T18:56:38.351Z,7.51
2022-11-12T19:01:59.118Z,7.48
2022-11-12T19:07:19.549Z,7.46
2022-11-12T19:12:40.172Z,7.40
2022-11-12T19:18:01.503Z,7.33
2022-11-12T19:23:22.113Z,7.26
2022-11-12T19:28:42.981Z,7.19
2022-11-12T19:34:03.449Z,7.12
2022-11-12T19:39:24.154Z,7.04
2022-11-12T19:44:44.566Z,6.94
2022-11-12T19:50:05.181Z,6.85
2022-11-12T19:55:25.824Z,6.80
2022-11-12T20:00:46.520Z,6.73
2022-11-12T20:06:08.926Z,6.71
2022-11-12T20:11:29.304Z,6.75
2022-11-12T20:16:50.350Z,6.86
2022-11-12T20:22:11.083Z,6.95
2022-11-12T20:27:31.551Z,7.03
2022-11-12T20:32:52.031Z,7.07
2022-11-12T20:38:12.255Z,7.11
2022-11-12T20:43:33.146Z,7.18
2022-11-12T20:48:54.926Z,7.27
2022-11-12T20:54:15.775Z,7.29
2022-11-12T20:59:41.188Z,7.24
2022-11-12T21:05:01.403Z,7.29
2022-11-12T21:10:22.114Z,7.31
2022-11-12T21:15:45.723Z,7.19
2022-11-12T21:21:13.094Z,7.19
2022-11-12T21:26:33.451Z,7.21
2022-11-12T21:31:54.084Z,7.21
2022-11-12T21:37:14.243Z,7.14
2022-11-12T21:42:34.970Z,7.20
2022-11-12T21:47:55.110Z,7.20
2022-11-12T21:53:15.354Z,7.25
2022-11-12T21:58:35.821Z,7.31
2022-11-12T22:03:57.168Z,7.38
2022-11-12T22:09:22.271Z,7.41
2022-11-12T22:14:42.499Z,7.47
2022-11-12T22:20:03.499Z,7.50
2022-11-12T22:25:23.695Z,7.56
2022-11-12T22:30:45.619Z,7.59
2022-11-12T22:36:11.025Z,7.59
2022-11-12T22:41:31.991Z,7.57
2022-11-12T22:46:52.473Z,7.59
2022-11-12T22:52:13.080Z,7.64
2022-11-12T22:57:33.673Z,7.65
2022-11-12T23:02:54.202Z,7.67
2022-11-12T23:08:14.800Z,7.69
2022-11-12T23:13:35.119Z,7.81
2022-11-12T23:18:55.915Z,7.84
2022-11-12T23:24:16.016Z,7.87
2022-11-12T23:29:37.495Z,7.90
2022-11-12T23:34:57.992Z,7.91
2022-11-12T23:40:18.649Z,7.83
2022-11-12T23:45:39.407Z,7.85
2022-11-12T23:51:04.008Z,7.83
2022-11-12T23:56:24.445Z,7.83
